Time;durP1;ratioP1;P1;durP2;ratioP2;P2;SDS_P1;SDS_P2;PMS_P1;PMS_P2;Temp;Humidity;BMP_temperature;BMP_pressure;BME280_temperature;BME280_humidity;BME280_pressure;Samples;Min_cycle;Max_cycle;Signal;HPM_P1;HPM_P2
2021/07/02 00:01:46;;;;;;;10.53;8.63;;;17.00;99.90;;;;;;5075611;28;20469;-68
2021/07/02 00:04:13;;;;;;;13.30;10.70;;;17.00;99.90;;;;;;5075889;28;20560;-68
2021/07/02 00:06:40;;;;;;;13.60;9.80;;;17.00;99.90;;;;;;5075521;28;20458;-68
2021/07/02 00:09:08;;;;;;;16.00;10.50;;;17.00;99.90;;;;;;5075321;28;20481;-68
2021/07/02 00:11:34;;;;;;;23.40;11.10;;;17.00;99.90;;;;;;5075274;28;20782;-68
2021/07/02 00:14:03;;;;;;;17.57;12.60;;;17.10;99.90;;;;;;5075252;28;20794;-68
2021/07/02 00:16:33;;;;;;;17.33;12.10;;;17.10;99.90;;;;;;5075557;28;20497;-68
2021/07/02 00:18:59;;;;;;;19.23;12.90;;;17.10;99.90;;;;;;5074962;28;20465;-68
2021/07/02 00:21:26;;;;;;;18.70;12.50;;;17.10;99.90;;;;;;5075298;28;20568;-69
2021/07/02 00:23:53;;;;;;;17.23;12.60;;;17.10;99.90;;;;;;5075106;28;20473;-68
2021/07/02 00:26:21;;;;;;;17.93;13.00;;;17.10;99.90;;;;;;5075162;28;20911;-68
2021/07/02 00:28:48;;;;;;;19.70;14.00;;;17.10;99.90;;;;;;5074678;28;20482;-68
2021/07/02 00:31:14;;;;;;;22.30;14.23;;;17.10;99.90;;;;;;5075033;28;20527;-68
2021/07/02 00:33:41;;;;;;;23.77;15.30;;;17.10;99.90;;;;;;5074949;28;20458;-68
2021/07/02 00:36:08;;;;;;;23.30;15.20;;;17.10;99.90;;;;;;5074629;28;20462;-68
2021/07/02 00:38:36;;;;;;;22.03;15.70;;;17.10;99.90;;;;;;5075087;28;20455;-68
2021/07/02 00:41:03;;;;;;;23.47;15.00;;;17.10;99.90;;;;;;5075195;28;20462;-69
2021/07/02 00:43:31;;;;;;;27.43;16.00;;;17.20;99.90;;;;;;5074586;28;20462;-68
2021/07/02 00:45:57;;;;;;;26.33;16.17;;;17.20;99.90;;;;;;5074984;28;20466;-68
2021/07/02 00:48:24;;;;;;;27.07;16.67;;;17.10;99.90;;;;;;5074326;28;20823;-68
2021/07/02 00:50:51;;;;;;;27.57;16.70;;;17.20;99.90;;;;;;5074508;28;20458;-68
2021/07/02 00:53:22;;;;;;;28.10;16.70;;;17.10;99.90;;;;;;5074844;28;20462;-69
2021/07/02 00:55:50;;;;;;;31.87;17.20;;;17.10;99.90;;;;;;5074966;28;20469;-69
2021/07/02 00:58:19;;;;;;;29.90;17.33;;;17.10;99.90;;;;;;5074980;28;20783;-69
2021/07/02 01:00:48;;;;;;;30.40;18.60;;;17.10;99.90;;;;;;5074746;28;20469;-68
2021/07/02 01:03:14;;;;;;;26.37;16.47;;;17.10;99.90;;;;;;5075324;28;20457;-69
2021/07/02 01:05:43;;;;;;;31.73;17.97;;;17.10;99.90;;;;;;5074772;28;20466;-68
2021/07/02 01:08:09;;;;;;;30.90;18.50;;;17.10;99.90;;;;;;5074635;28;20462;-68
2021/07/02 01:10:36;;;;;;;32.80;20.07;;;17.10;99.90;;;;;;5074612;28;20485;-68
2021/07/02 01:13:03;;;;;;;29.23;17.53;;;17.20;99.90;;;;;;5074723;28;20818;-68
2021/07/02 01:15:30;;;;;;;33.73;19.83;;;17.20;99.90;;;;;;5074522;28;20458;-68
2021/07/02 01:17:58;;;;;;;33.37;18.47;;;17.20;99.90;;;;;;5074077;28;20458;-68
2021/07/02 01:20:25;;;;;;;29.07;18.60;;;17.20;99.90;;;;;;5074360;28;20898;-68
2021/07/02 01:22:53;;;;;;;35.43;19.47;;;17.30;99.90;;;;;;5074630;28;20466;-68
2021/07/02 01:25:20;;;;;;;33.17;20.20;;;17.30;99.90;;;;;;5075717;28;20760;-68
2021/07/02 01:27:47;;;;;;;33.47;20.27;;;17.30;99.90;;;;;;5079809;28;20473;-68
2021/07/02 01:30:15;;;;;;;29.93;19.80;;;17.30;99.90;;;;;;5078339;28;20490;-68
2021/07/02 01:32:42;;;;;;;34.07;21.00;;;17.30;99.90;;;;;;5078585;28;20511;-68
2021/07/02 01:35:10;;;;;;;33.90;20.33;;;17.30;99.90;;;;;;5078511;28;20906;-68
2021/07/02 01:37:37;;;;;;;32.13;20.30;;;17.30;99.90;;;;;;5078582;28;20469;-68
2021/07/02 01:40:06;;;;;;;35.77;19.40;;;17.30;99.90;;;;;;5077496;28;20467;-68
2021/07/02 01:42:33;;;;;;;37.57;21.83;;;17.30;99.90;;;;;;5078742;28;20511;-68
2021/07/02 01:45:00;;;;;;;31.33;20.23;;;17.40;99.90;;;;;;5078667;28;20458;-68
2021/07/02 01:47:26;;;;;;;32.53;20.17;;;17.40;99.90;;;;;;5078144;28;20486;-67
2021/07/02 01:49:53;;;;;;;36.67;21.10;;;17.40;99.90;;;;;;5078447;28;20496;-67
2021/07/02 01:52:20;;;;;;;31.53;20.40;;;17.40;99.90;;;;;;5079011;28;20773;-67
2021/07/02 01:54:46;;;;;;;31.63;21.30;;;17.40;99.90;;;;;;5078719;28;20462;-68
2021/07/02 01:57:22;;;;;;;40.60;21.47;;;17.40;99.90;;;;;;5078960;28;20465;-68
2021/07/02 01:59:49;;;;;;;36.10;19.47;;;17.40;99.90;;;;;;5078436;28;20817;-68
2021/07/02 02:02:16;;;;;;;32.50;22.80;;;17.50;99.90;;;;;;5078340;28;20468;-68
2021/07/02 02:04:43;;;;;;;32.83;20.87;;;17.40;99.90;;;;;;5078353;28;20457;-68
2021/07/02 02:07:09;;;;;;;31.87;19.07;;;17.50;99.90;;;;;;5078192;28;20454;-67
2021/07/02 02:09:36;;;;;;;30.33;20.90;;;17.50;99.90;;;;;;5077819;28;20489;-68
2021/07/02 02:12:04;;;;;;;35.70;19.47;;;17.50;99.90;;;;;;5078584;28;20482;-68
2021/07/02 02:14:32;;;;;;;28.03;19.50;;;17.50;99.90;;;;;;5077727;28;20791;-68
2021/07/02 02:16:59;;;;;;;38.63;22.30;;;17.50;99.90;;;;;;5077839;28;20922;-68
2021/07/02 02:19:27;;;;;;;32.10;21.73;;;17.50;99.90;;;;;;5078212;28;20458;-67
2021/07/02 02:21:54;;;;;;;31.87;20.93;;;17.60;99.90;;;;;;5077966;28;20572;-68
2021/07/02 02:24:21;;;;;;;32.80;21.67;;;17.50;99.90;;;;;;5077230;28;20891;-68
2021/07/02 02:26:48;;;;;;;39.47;19.90;;;17.50;99.90;;;;;;5077135;28;20504;-67
2021/07/02 02:29:14;;;;;;;35.03;21.03;;;17.50;99.90;;;;;;5077714;28;20477;-68
2021/07/02 02:31:42;;;;;;;30.03;19.63;;;17.50;99.90;;;;;;5077277;28;20937;-68
2021/07/02 02:34:09;;;;;;;32.57;20.87;;;17.50;99.90;;;;;;5077491;28;20465;-68
2021/07/02 02:36:37;;;;;;;31.80;19.53;;;17.50;99.90;;;;;;5076069;28;20458;-68
2021/07/02 02:39:05;;;;;;;28.93;21.07;;;17.50;99.90;;;;;;5077025;28;20928;-68
2021/07/02 02:41:32;;;;;;;32.27;19.77;;;17.50;99.90;;;;;;5076942;28;20504;-67
2021/07/02 02:43:59;;;;;;;29.23;20.07;;;17.60;99.90;;;;;;5077183;28;20465;-68
2021/07/02 02:46:26;;;;;;;27.17;19.97;;;17.60;99.90;;;;;;5077286;28;20591;-68
2021/07/02 02:48:54;;;;;;;24.90;18.13;;;17.60;99.90;;;;;;5076822;28;20847;-68
2021/07/02 02:51:22;;;;;;;31.30;17.90;;;17.60;99.90;;;;;;5077058;28;20508;-67
2021/07/02 02:53:49;;;;;;;28.60;16.47;;;17.60;99.90;;;;;;5077138;28;20458;-68
2021/07/02 02:56:17;;;;;;;31.37;18.57;;;17.60;99.90;;;;;;5077265;28;20468;-68
2021/07/02 02:58:44;;;;;;;29.50;17.00;;;17.70;99.90;;;;;;5077457;28;20454;-68
2021/07/02 03:01:10;;;;;;;22.03;17.40;;;17.70;99.90;;;;;;5076710;28;20451;-68
2021/07/02 03:03:37;;;;;;;28.63;16.57;;;17.70;99.90;;;;;;5077041;28;20485;-67
2021/07/02 03:06:05;;;;;;;19.07;15.80;;;17.80;99.90;;;;;;5076885;28;20462;-67
2021/07/02 03:08:32;;;;;;;21.67;16.00;;;17.80;99.90;;;;;;5077322;28;20790;-67
2021/07/02 03:10:59;;;;;;;22.27;15.30;;;17.80;99.90;;;;;;5076951;28;20478;-68
2021/07/02 03:13:25;;;;;;;25.33;14.43;;;17.80;99.90;;;;;;5076619;28;20454;-68
2021/07/02 03:15:52;;;;;;;16.93;14.17;;;17.80;99.90;;;;;;5076981;28;20469;-68
2021/07/02 03:18:19;;;;;;;16.10;14.07;;;17.80;99.90;;;;;;5077183;28;20473;-68
2021/07/02 03:20:45;;;;;;;15.90;13.53;;;17.80;99.90;;;;;;5077741;28;20454;-68
2021/07/02 03:23:14;;;;;;;18.33;12.67;;;17.70;99.90;;;;;;5076826;28;20454;-68
2021/07/02 03:25:40;;;;;;;18.00;13.17;;;17.70;99.90;;;;;;5077022;28;20453;-68
2021/07/02 03:28:07;;;;;;;16.60;14.10;;;17.70;99.90;;;;;;5076727;28;20926;-68
2021/07/02 03:30:34;;;;;;;21.33;13.33;;;17.70;99.90;;;;;;5076165;28;20962;-68
2021/07/02 03:33:01;;;;;;;17.57;14.53;;;17.70;99.90;;;;;;5076395;28;20819;-68
2021/07/02 03:35:28;;;;;;;14.57;12.77;;;17.70;99.90;;;;;;5076053;28;20458;-67
2021/07/02 03:37:54;;;;;;;14.00;12.33;;;17.70;99.90;;;;;;5076283;28;20494;-68
2021/07/02 03:40:22;;;;;;;13.20;11.80;;;17.70;99.90;;;;;;5075713;28;20941;-68
2021/07/02 03:42:52;;;;;;;17.53;12.83;;;17.70;99.90;;;;;;5077028;28;20458;-68
2021/07/02 03:45:18;;;;;;;14.47;11.90;;;17.80;99.90;;;;;;5076132;28;20529;-68
2021/07/02 03:47:45;;;;;;;13.13;11.37;;;17.80;99.90;;;;;;5075521;28;20482;-67
2021/07/02 03:50:12;;;;;;;14.07;12.57;;;17.80;99.90;;;;;;5075877;28;20477;-68
2021/07/02 03:52:39;;;;;;;18.13;13.87;;;17.80;99.90;;;;;;5075797;28;20472;-68
2021/07/02 03:55:07;;;;;;;14.20;12.70;;;17.90;99.90;;;;;;5076291;28;20468;-68
2021/07/02 03:57:35;;;;;;;12.87;10.70;;;17.90;99.90;;;;;;5075826;28;20458;-68
2021/07/02 04:00:02;;;;;;;14.30;12.37;;;17.90;99.90;;;;;;5075797;28;20458;-67
2021/07/02 04:02:29;;;;;;;13.20;11.80;;;17.90;99.90;;;;;;5075944;28;20454;-68
2021/07/02 04:04:56;;;;;;;16.30;11.37;;;17.90;99.90;;;;;;5075527;28;20505;-68
2021/07/02 04:07:24;;;;;;;14.17;11.30;;;17.90;99.90;;;;;;5075838;28;20473;-67
2021/07/02 04:09:51;;;;;;;13.27;11.20;;;17.90;99.90;;;;;;5075646;28;20478;-68
2021/07/02 04:12:18;;;;;;;14.83;11.33;;;17.90;99.90;;;;;;5075446;28;20952;-68
2021/07/02 04:14:46;;;;;;;14.50;11.80;;;17.90;99.90;;;;;;5076141;28;20481;-68
2021/07/02 04:17:13;;;;;;;12.20;10.93;;;17.90;99.90;;;;;;5075746;28;20469;-68
2021/07/02 04:19:40;;;;;;;13.10;10.87;;;17.90;99.90;;;;;;5075668;28;20797;-68
2021/07/02 04:22:07;;;;;;;12.27;10.70;;;17.90;99.90;;;;;;5075519;28;20462;-68
2021/07/02 04:24:35;;;;;;;14.30;10.40;;;17.90;99.90;;;;;;5075365;28;20454;-68
2021/07/02 04:27:01;;;;;;;16.53;12.50;;;17.90;99.90;;;;;;5075546;28;20765;-67
2021/07/02 04:29:28;;;;;;;13.90;10.77;;;17.90;99.90;;;;;;5075548;28;20454;-69
2021/07/02 04:31:56;;;;;;;12.57;10.20;;;17.90;99.90;;;;;;5075228;28;20793;-67
2021/07/02 04:34:23;;;;;;;11.00;9.67;;;17.90;99.90;;;;;;5075318;28;20639;-69
2021/07/02 04:36:50;;;;;;;11.77;10.40;;;18.00;99.90;;;;;;5075530;28;20831;-68
2021/07/02 04:39:18;;;;;;;14.57;10.63;;;18.00;99.90;;;;;;5076070;28;20454;-67
2021/07/02 04:41:45;;;;;;;11.47;10.27;;;18.10;99.90;;;;;;5075760;28;20462;-68
2021/07/02 04:44:12;;;;;;;14.10;10.60;;;18.10;99.90;;;;;;5075780;28;20930;-67
2021/07/02 04:46:39;;;;;;;13.60;9.67;;;18.10;99.90;;;;;;5075567;28;20465;-68
2021/07/02 04:49:07;;;;;;;11.53;10.37;;;18.00;99.90;;;;;;5075150;28;20482;-68
2021/07/02 04:51:33;;;;;;;13.13;9.70;;;18.00;99.90;;;;;;5075675;28;20478;-67
2021/07/02 04:54:00;;;;;;;11.40;10.30;;;18.00;99.90;;;;;;5075352;28;20458;-68
2021/07/02 04:56:28;;;;;;;11.70;9.33;;;18.00;99.90;;;;;;5075624;28;20439;-68
2021/07/02 04:58:55;;;;;;;13.23;9.80;;;18.00;99.90;;;;;;5075718;28;20461;-68
2021/07/02 05:01:23;;;;;;;11.50;9.87;;;18.00;99.90;;;;;;5075055;28;20556;-67
2021/07/02 05:03:50;;;;;;;11.33;8.97;;;18.00;99.90;;;;;;5075782;28;20454;-68
2021/07/02 05:06:19;;;;;;;13.23;10.37;;;18.00;99.90;;;;;;5075958;28;20499;-68
2021/07/02 05:08:46;;;;;;;15.60;10.93;;;18.00;99.90;;;;;;5075725;28;20481;-68
2021/07/02 05:11:13;;;;;;;10.50;9.40;;;18.00;99.90;;;;;;5075836;28;20474;-68
2021/07/02 05:13:41;;;;;;;10.33;9.17;;;18.00;99.90;;;;;;5076458;28;20458;-67
2021/07/02 05:16:08;;;;;;;10.80;9.70;;;18.10;99.90;;;;;;5075735;28;20454;-67
2021/07/02 05:18:35;;;;;;;12.23;9.90;;;18.10;99.90;;;;;;5075577;28;20458;-67
2021/07/02 05:21:02;;;;;;;10.57;9.23;;;18.10;99.90;;;;;;5075032;28;20454;-67
2021/07/02 05:23:30;;;;;;;10.10;9.07;;;18.20;99.90;;;;;;5075414;28;20458;-67
2021/07/02 05:25:56;;;;;;;11.47;9.83;;;18.20;99.90;;;;;;5074586;28;20458;-67
2021/07/02 05:28:23;;;;;;;11.87;9.77;;;18.20;99.90;;;;;;5075122;28;20469;-67
2021/07/02 05:30:50;;;;;;;11.73;9.10;;;18.20;99.90;;;;;;5074920;28;20477;-67
2021/07/02 05:33:17;;;;;;;10.57;8.30;;;18.20;99.90;;;;;;5074533;28;20458;-68
2021/07/02 05:35:46;;;;;;;9.87;8.73;;;18.20;99.90;;;;;;5075103;28;20785;-68
2021/07/02 05:38:13;;;;;;;13.63;9.53;;;18.30;99.90;;;;;;5075111;28;20454;-68
2021/07/02 05:40:41;;;;;;;12.47;9.53;;;18.30;99.90;;;;;;5074192;28;20523;-68
2021/07/02 05:43:08;;;;;;;15.53;8.60;;;18.30;99.90;;;;;;5074940;28;20794;-67
2021/07/02 05:45:34;;;;;;;10.50;9.10;;;18.40;99.90;;;;;;5074514;28;20458;-68
2021/07/02 05:48:02;;;;;;;11.27;8.10;;;18.50;99.90;;;;;;5074346;28;20508;-68
2021/07/02 05:50:30;;;;;;;12.00;8.40;;;18.50;99.90;;;;;;5074516;28;20825;-68
2021/07/02 05:52:57;;;;;;;10.63;9.57;;;18.60;99.90;;;;;;5074997;28;20781;-68
2021/07/02 05:55:24;;;;;;;10.27;9.10;;;18.70;99.90;;;;;;5074803;28;20938;-68
2021/07/02 05:57:53;;;;;;;9.07;8.17;;;18.70;99.90;;;;;;5074562;28;20464;-68
2021/07/02 06:00:21;;;;;;;10.47;8.90;;;18.70;99.90;;;;;;5074626;28;20451;-68
2021/07/02 06:02:48;;;;;;;11.70;8.87;;;18.70;99.90;;;;;;5075001;28;20458;-68
2021/07/02 06:05:15;;;;;;;11.30;9.30;;;18.70;99.90;;;;;;5074303;28;20910;-67
2021/07/02 06:07:46;;;;;;;11.03;9.57;;;18.80;99.90;;;;;;5074247;28;20469;-67
2021/07/02 06:10:14;;;;;;;11.63;8.93;;;18.90;99.90;;;;;;5074637;28;20469;-67
2021/07/02 06:12:41;;;;;;;9.57;7.97;;;18.90;99.90;;;;;;5077974;28;20477;-67
2021/07/02 06:15:11;;;;;;;12.00;8.37;;;19.00;99.90;;;;;;5078588;28;20458;-67
2021/07/02 06:17:38;;;;;;;9.30;8.30;;;19.10;99.90;;;;;;5078561;28;20907;-68
2021/07/02 06:20:05;;;;;;;8.27;7.47;;;19.20;99.90;;;;;;5079089;28;20461;-67
2021/07/02 06:22:32;;;;;;;8.97;8.00;;;19.30;99.90;;;;;;5079182;28;20477;-68
2021/07/02 06:24:59;;;;;;;12.33;7.20;;;19.40;99.90;;;;;;5084444;28;20457;-69
2021/07/02 06:27:25;;;;;;;9.97;7.90;;;19.60;99.90;;;;;;5085908;28;20454;-69
2021/07/02 06:29:52;;;;;;;8.97;7.10;;;19.70;99.90;;;;;;5085207;28;20462;-70
2021/07/02 06:32:20;;;;;;;7.23;6.53;;;19.80;99.90;;;;;;5088776;28;20556;-71
2021/07/02 06:34:47;;;;;;;9.03;7.60;;;19.90;99.90;;;;;;5087123;28;20454;-71
2021/07/02 06:37:14;;;;;;;7.40;6.60;;;19.90;99.90;;;;;;5089923;28;20465;-71
2021/07/02 06:39:41;;;;;;;8.77;7.27;;;20.00;99.90;;;;;;5093099;28;20451;-70
2021/07/02 06:42:08;;;;;;;8.30;6.63;;;20.00;99.90;;;;;;5091679;28;20785;-70
2021/07/02 06:44:34;;;;;;;11.53;7.13;;;19.90;99.90;;;;;;5091400;28;20767;-70
2021/07/02 06:47:01;;;;;;;9.63;7.20;;;19.90;99.90;;;;;;5090414;28;20459;-70
2021/07/02 06:49:29;;;;;;;9.03;7.50;;;19.80;99.90;;;;;;5088730;28;20450;-70
2021/07/02 06:51:56;;;;;;;9.37;7.40;;;19.80;99.90;;;;;;5089590;28;20478;-70
2021/07/02 06:54:23;;;;;;;10.60;6.90;;;19.70;99.90;;;;;;5089977;28;20768;-70
2021/07/02 06:57:01;;;;;;;8.73;7.33;;;19.60;99.90;;;;;;5091218;28;20871;-70
2021/07/02 06:59:32;;;;;;;7.33;6.47;;;19.60;99.90;;;;;;5088408;28;20434;-70
2021/07/02 07:01:59;;;;;;;7.13;6.43;;;19.60;99.90;;;;;;5091781;28;20466;-70
2021/07/02 07:04:29;;;;;;;8.87;6.53;;;19.60;99.90;;;;;;5092870;28;20489;-70
2021/07/02 07:06:57;;;;;;;8.33;6.30;;;19.70;99.90;;;;;;5091359;28;20455;-70
2021/07/02 07:09:23;;;;;;;9.83;6.93;;;19.80;99.90;;;;;;5092151;28;20461;-70
2021/07/02 07:11:50;;;;;;;6.83;5.47;;;19.90;99.90;;;;;;5090697;28;20470;-70
2021/07/02 07:14:17;;;;;;;5.83;5.23;;;19.90;99.90;;;;;;5091021;28;20776;-70
2021/07/02 07:16:44;;;;;;;8.30;5.20;;;19.90;99.90;;;;;;5088518;28;20639;-70
2021/07/02 07:19:15;;;;;;;6.63;5.23;;;20.00;99.90;;;;;;5087323;28;20451;-71
2021/07/02 07:21:42;;;;;;;6.83;5.83;;;19.90;99.90;;;;;;5086335;28;20465;-71
2021/07/02 07:24:10;;;;;;;7.30;5.77;;;19.90;99.90;;;;;;5084143;28;20465;-71
2021/07/02 07:26:37;;;;;;;6.67;5.50;;;19.90;99.90;;;;;;5082860;28;20533;-71
2021/07/02 07:29:05;;;;;;;6.77;6.07;;;19.90;99.90;;;;;;5083191;28;20455;-71
2021/07/02 07:31:32;;;;;;;8.90;6.17;;;19.90;99.90;;;;;;5084246;28;20478;-72
2021/07/02 07:34:00;;;;;;;7.77;5.33;;;19.90;99.90;;;;;;5084419;28;20868;-72
2021/07/02 07:36:28;;;;;;;6.30;5.70;;;19.90;99.90;;;;;;5083131;28;20464;-71
2021/07/02 07:38:55;;;;;;;11.50;6.13;;;19.90;99.90;;;;;;5082981;28;20454;-71
2021/07/02 07:41:24;;;;;;;8.23;5.63;;;20.00;99.90;;;;;;5084028;28;20450;-71
2021/07/02 07:43:50;;;;;;;7.30;5.80;;;20.10;99.90;;;;;;5083633;28;20948;-70
2021/07/02 07:46:17;;;;;;;5.80;5.20;;;20.20;99.90;;;;;;5085278;28;20459;-71
2021/07/02 07:48:44;;;;;;;7.43;5.50;;;20.20;86.80;;;;;;5085260;28;20493;-71
2021/07/02 07:51:30;;;;;;;6.50;5.63;;;20.30;89.10;;;;;;5083948;28;20482;-70
2021/07/02 07:53:56;;;;;;;5.77;5.27;;;20.40;79.10;;;;;;5085128;28;20453;-70
2021/07/02 07:56:26;;;;;;;4.90;4.50;;;20.60;69.50;;;;;;5086833;28;20937;-72
2021/07/02 07:58:53;;;;;;;7.60;5.73;;;20.70;50.40;;;;;;5087482;28;20458;-71
2021/07/02 08:01:20;;;;;;;7.13;5.13;;;20.90;46.30;;;;;;5087062;28;20942;-71
2021/07/02 08:03:46;;;;;;;6.20;5.27;;;21.10;30.20;;;;;;5087859;28;20509;-71
2021/07/02 08:06:13;;;;;;;7.83;4.80;;;21.30;1.00;;;;;;5087469;28;20469;-71
2021/07/02 08:08:40;;;;;;;7.80;4.67;;;21.50;1.00;;;;;;5083180;28;20450;-71
2021/07/02 08:11:07;;;;;;;5.77;4.77;;;21.60;1.00;;;;;;5081954;28;20482;-71
2021/07/02 08:13:35;;;;;;;5.30;4.70;;;21.80;1.00;;;;;;5083737;28;20455;-71
2021/07/02 08:16:01;;;;;;;5.30;4.50;;;22.00;1.00;;;;;;5082580;28;20454;-71
2021/07/02 08:18:30;;;;;;;6.77;4.70;;;22.10;1.00;;;;;;5087554;28;20450;-71
2021/07/02 08:20:57;;;;;;;5.30;4.80;;;22.00;1.00;;;;;;5088100;28;20541;-70
2021/07/02 08:23:23;;;;;;;6.90;4.40;;;22.00;1.00;;;;;;5087735;28;20465;-70
2021/07/02 08:25:50;;;;;;;9.40;4.93;;;21.90;1.00;;;;;;5087904;28;20779;-70
2021/07/02 08:31:03;;;;;;;6.37;4.87;;;22.00;1.00;;;;;;5084755;28;20458;-71
2021/07/02 08:33:29;;;;;;;6.40;4.70;;;21.80;1.00;;;;;;5088204;28;20465;-70
2021/07/02 08:36:00;;;;;;;6.70;5.17;;;21.70;1.00;;;;;;5086121;28;20903;-70
2021/07/02 08:38:27;;;;;;;4.87;4.47;;;21.60;1.00;;;;;;5088222;28;20447;-70
2021/07/02 08:40:55;;;;;;;6.63;5.17;;;21.50;1.00;;;;;;5088608;28;20443;-69
2021/07/02 08:43:22;;;;;;;5.13;4.53;;;21.50;1.00;;;;;;5089781;28;20454;-69
2021/07/02 08:45:49;;;;;;;4.70;4.30;;;21.50;1.00;;;;;;5089233;28;20458;-70
2021/07/02 08:48:20;;;;;;;4.63;4.20;;;21.50;1.00;;;;;;5091155;28;20489;-70
2021/07/02 08:50:47;;;;;;;5.00;4.37;;;21.60;1.00;;;;;;5089785;28;20442;-69
2021/07/02 08:53:16;;;;;;;5.83;4.77;;;21.60;1.00;;;;;;5086957;28;20478;-70
2021/07/02 08:55:43;;;;;;;4.20;3.80;;;21.60;1.00;;;;;;5088946;28;20464;-70
2021/07/02 08:58:14;;;;;;;3.60;3.30;;;21.60;1.00;;;;;;5087300;28;20450;-70
2021/07/02 09:00:47;;;;;;;5.20;3.73;;;21.70;1.00;;;;;;5087238;28;20454;-70
2021/07/02 09:03:35;;;;;;;3.83;3.43;;;22.00;1.00;;;;;;5090954;28;20453;-71
2021/07/02 09:06:16;;;;;;;4.50;4.10;;;22.10;99.90;;;;;;5088386;28;20461;-71
2021/07/02 09:08:59;;;;;;;9.77;8.77;;;22.20;1.00;;;;;;5088455;28;20500;-70
2021/07/02 09:11:27;;;;;;;5.00;4.60;;;22.10;1.00;;;;;;5087799;28;20508;-70
2021/07/02 09:13:54;;;;;;;5.80;4.40;;;22.10;1.00;;;;;;5088617;28;20458;-70
2021/07/02 09:16:25;;;;;;;4.83;4.37;;;22.00;1.00;;;;;;5088238;28;20462;-71
2021/07/02 09:19:00;;;;;;;6.17;4.33;;;22.00;1.00;;;;;;5090616;28;20529;-71
2021/07/02 09:21:28;;;;;;;4.67;4.27;;;21.90;99.90;;;;;;5089785;28;20451;-70
2021/07/02 09:23:59;;;;;;;4.60;3.90;;;22.00;1.00;;;;;;5087761;28;20446;-70
2021/07/02 09:26:39;;;;;;;4.73;4.23;;;22.00;99.90;;;;;;5089091;28;20600;-71
2021/07/02 09:29:18;;;;;;;5.23;4.30;;;22.10;99.90;;;;;;5090257;28;20464;-71
2021/07/02 09:31:56;;;;;;;4.63;4.23;;;22.20;99.90;;;;;;5090659;28;20872;-70
2021/07/02 09:34:44;;;;;;;7.00;4.80;;;22.30;99.90;;;;;;5089627;28;20450;-71
2021/07/02 09:37:21;;;;;;;8.80;4.20;;;22.40;65.20;;;;;;5089397;28;20435;-71
2021/07/02 09:39:48;;;;;;;5.57;4.47;;;22.40;9.10;;;;;;5090442;28;20447;-71
2021/07/02 09:42:26;;;;;;;5.20;3.93;;;22.60;1.00;;;;;;5090671;28;20470;-70
2021/07/02 09:45:08;;;;;;;4.77;4.00;;;22.80;1.00;;;;;;5089435;28;20461;-70
2021/07/02 09:47:36;;;;;;;4.20;3.83;;;23.00;1.00;;;;;;5090753;28;20470;-70
2021/07/02 09:50:22;;;;;;;4.53;4.13;;;23.20;1.00;;;;;;5093652;28;20491;-71
2021/07/02 09:52:52;;;;;;;5.70;5.17;;;23.30;1.00;;;;;;5094129;28;20520;-72
2021/07/02 09:55:27;;;;;;;8.13;4.77;;;23.30;1.00;;;;;;5093523;28;20454;-71
2021/07/02 09:58:15;;;;;;;5.20;4.70;;;23.20;1.00;;;;;;5093961;28;20468;-70
2021/07/02 10:00:46;;;;;;;5.73;5.23;;;23.30;1.00;;;;;;5091815;28;20451;-70
2021/07/02 10:03:17;;;;;;;5.43;4.70;;;23.30;1.00;;;;;;5089137;28;20759;-71
2021/07/02 10:05:47;;;;;;;5.50;5.00;;;23.20;1.00;;;;;;5091080;28;20442;-70
2021/07/02 10:08:18;;;;;;;5.30;4.80;;;23.00;1.00;;;;;;5088843;28;20446;-70
2021/07/02 10:10:45;;;;;;;4.80;4.40;;;23.00;1.00;;;;;;5088157;28;20460;-70
2021/07/02 10:13:12;;;;;;;9.80;5.40;;;23.00;1.00;;;;;;5087699;28;20792;-70
2021/07/02 10:15:38;;;;;;;6.97;5.60;;;22.90;1.00;;;;;;5080488;28;20450;-69
2021/07/02 10:18:08;;;;;;;5.23;4.70;;;22.90;1.00;;;;;;5078241;28;20454;-69
2021/07/02 10:20:34;;;;;;;6.90;5.83;;;22.80;1.00;;;;;;5079824;28;20919;-68
2021/07/02 10:23:03;;;;;;;8.63;5.20;;;22.70;1.00;;;;;;5078597;28;20461;-69
2021/07/02 10:25:31;;;;;;;5.13;4.63;;;22.70;1.00;;;;;;5078518;28;20461;-69
2021/07/02 10:27:59;;;;;;;8.37;7.43;;;22.80;1.00;;;;;;5079111;28;20546;-69
2021/07/02 10:30:26;;;;;;;6.30;5.57;;;22.90;1.00;;;;;;5078556;28;20461;-69
2021/07/02 10:32:56;;;;;;;8.50;5.53;;;23.10;1.00;;;;;;5078073;28;20488;-69
2021/07/02 10:35:23;;;;;;;5.83;5.33;;;23.20;1.00;;;;;;5078455;28;20451;-69
2021/07/02 10:37:54;;;;;;;6.67;6.00;;;23.20;1.00;;;;;;5078674;28;20762;-70
2021/07/02 10:40:36;;;;;;;6.00;5.50;;;23.10;1.00;;;;;;5078594;28;20910;-70
2021/07/02 10:43:10;;;;;;;4.93;4.50;;;23.10;1.00;;;;;;5079587;28;20505;-70
2021/07/02 10:45:39;;;;;;;6.70;5.13;;;23.10;99.90;;;;;;5080097;28;20438;-70
2021/07/02 10:48:06;;;;;;;5.50;4.57;;;23.20;1.00;;;;;;5079046;28;20474;-70
2021/07/02 10:50:38;;;;;;;6.47;4.70;;;23.30;1.00;;;;;;5077718;28;20458;-69
2021/07/02 10:53:27;;;;;;;5.90;4.83;;;23.40;99.90;;;;;;5077696;28;20485;-69
2021/07/02 10:55:57;;;;;;;5.10;4.70;;;23.40;99.90;;;;;;5078171;28;20533;-69
2021/07/02 10:58:25;;;;;;;4.93;4.47;;;23.40;99.90;;;;;;5077206;28;20454;-69
2021/07/02 11:01:13;;;;;;;6.53;5.00;;;23.30;99.90;;;;;;5078498;28;20511;-69
2021/07/02 11:03:39;;;;;;;6.50;3.73;;;23.40;99.90;;;;;;5074262;28;20461;-68
2021/07/02 11:06:29;;;;;;;4.43;4.00;;;23.50;99.90;;;;;;5078749;28;20454;-71
2021/07/02 11:08:56;;;;;;;4.83;4.30;;;23.60;99.90;;;;;;5078289;28;20431;-70
2021/07/02 11:12:09;;;;;;;5.50;4.67;;;23.70;99.90;;;;;;5081143;28;20503;-71
2021/07/02 11:15:08;;;;;;;4.67;4.00;;;23.50;99.90;;;;;;5080368;28;20492;-71
2021/07/02 11:17:39;;;;;;;5.10;4.60;;;23.40;99.90;;;;;;5080431;28;20486;-71
2021/07/02 11:20:29;;;;;;;5.20;4.47;;;23.40;99.90;;;;;;5078077;28;20438;-68
2021/07/02 11:23:14;;;;;;;4.90;4.40;;;23.60;99.90;;;;;;5078037;28;20554;-69
2021/07/02 11:25:49;;;;;;;4.80;4.40;;;23.80;99.90;;;;;;5077982;28;20430;-69
2021/07/02 11:28:38;;;;;;;5.73;3.80;;;24.20;99.90;;;;;;5077021;28;20434;-70
2021/07/02 11:31:07;;;;;;;5.40;4.90;;;24.70;99.90;;;;;;5077107;28;20504;-70
2021/07/02 11:33:34;;;;;;;4.60;4.20;;;25.10;99.90;;;;;;5077457;28;20484;-69
2021/07/02 11:36:13;;;;;;;8.43;4.53;;;25.30;99.90;;;;;;5077334;28;20490;-69
2021/07/02 11:38:54;;;;;;;4.63;4.23;;;25.40;99.90;;;;;;5077816;28;20442;-70
2021/07/02 11:41:29;;;;;;;6.03;3.70;;;25.40;99.90;;;;;;5076768;28;20442;-70
2021/07/02 11:44:01;;;;;;;5.40;4.90;;;25.60;99.90;;;;;;5076816;28;20525;-70
2021/07/02 11:46:28;;;;;;;5.00;4.60;;;25.60;99.90;;;;;;5076523;28;20879;-69
2021/07/02 11:48:56;;;;;;;4.37;3.97;;;25.70;99.90;;;;;;5076099;28;20493;-70
2021/07/02 11:51:25;;;;;;;10.13;4.00;;;26.10;99.90;;;;;;5076570;28;20461;-68
2021/07/02 11:53:54;;;;;;;4.90;4.50;;;26.30;99.90;;;;;;5076239;28;20482;-70
2021/07/02 11:56:23;;;;;;;8.30;4.60;;;26.10;99.90;;;;;;5076417;28;20458;-72
2021/07/02 11:58:53;;;;;;;6.33;4.43;;;26.30;99.90;;;;;;5076077;28;20980;-69
2021/07/02 12:01:22;;;;;;;8.53;4.30;;;26.50;99.90;;;;;;5076247;28;20454;-70
2021/07/02 12:03:51;;;;;;;4.43;4.03;;;26.80;99.90;;;;;;5075978;28;20972;-70
2021/07/02 12:06:25;;;;;;;6.50;4.57;;;27.30;99.10;;;;;;5076012;28;20462;-69
2021/07/02 12:08:57;;;;;;;5.43;3.93;;;27.70;65.10;;;;;;5076035;28;20443;-69
2021/07/02 12:11:29;;;;;;;4.80;4.23;;;27.80;48.20;;;;;;5076037;28;20454;-69
2021/07/02 12:13:56;;;;;;;8.03;4.60;;;27.80;40.00;;;;;;5075525;28;20490;-68
2021/07/02 12:16:29;;;;;;;5.07;4.47;;;27.40;27.90;;;;;;5075602;28;20455;-68
2021/07/02 12:18:56;;;;;;;5.47;4.67;;;26.80;24.00;;;;;;5076013;28;20867;-69
2021/07/02 12:21:28;;;;;;;5.67;4.40;;;26.40;23.60;;;;;;5075499;28;20465;-68
2021/07/02 12:23:56;;;;;;;5.00;4.60;;;26.20;23.70;;;;;;5075841;28;20446;-69
2021/07/02 12:26:25;;;;;;;5.00;4.33;;;25.80;29.50;;;;;;5075213;28;20462;-69
2021/07/02 12:29:09;;;;;;;11.67;4.67;;;25.60;37.40;;;;;;5075841;28;20458;-69
2021/07/02 12:31:40;;;;;;;5.43;4.70;;;25.70;39.70;;;;;;5075915;28;20641;-70
2021/07/02 12:34:11;;;;;;;5.10;4.60;;;25.80;47.50;;;;;;5075229;28;20474;-69
2021/07/02 12:36:55;;;;;;;7.73;4.83;;;26.20;50.70;;;;;;5075917;28;20454;-69
2021/07/02 12:39:25;;;;;;;6.93;4.50;;;26.40;32.70;;;;;;5075488;28;20855;-69
2021/07/02 12:41:52;;;;;;;6.47;4.60;;;26.40;30.50;;;;;;5075990;28;20454;-69
2021/07/02 12:44:19;;;;;;;4.30;3.90;;;26.40;30.00;;;;;;5075833;28;20458;-69
2021/07/02 12:46:48;;;;;;;5.90;4.33;;;26.40;30.00;;;;;;5075440;28;20465;-69
2021/07/02 12:49:24;;;;;;;4.23;3.73;;;26.60;30.60;;;;;;5075765;28;20493;-68
2021/07/02 12:54:53;;;;;;;5.00;4.17;;;27.50;30.50;;;;;;5075150;28;20488;-69
2021/07/02 12:57:25;;;;;;;4.20;3.83;;;27.90;21.80;;;;;;5074745;28;20435;-69